createdAt,value
2017-12-05T10:16:37.684Z,30
2017-12-05T10:18:43.779Z,29
2017-12-05T10:20:51.866Z,31
2017-12-05T10:23:01.600Z,32
2017-12-05T10:25:18.042Z,30
2017-12-05T10:27:26.881Z,30
2017-12-05T10:29:32.680Z,29
2017-12-05T10:31:38.285Z,30
2017-12-05T10:33:43.545Z,29
2017-12-05T10:35:48.924Z,29
2017-12-05T10:37:54.428Z,31
2017-12-05T10:39:59.584Z,28
2017-12-05T10:42:04.740Z,31
2017-12-05T10:44:12.169Z,31
2017-12-05T10:46:17.925Z,29
2017-12-05T10:48:23.224Z,30
2017-12-05T10:50:29.520Z,30
2017-12-05T10:52:34.521Z,31
2017-12-05T10:54:39.858Z,29
2017-12-05T10:56:45.164Z,31
2017-12-05T10:58:50.693Z,31
2017-12-05T11:00:58.101Z,31
2017-12-05T11:03:05.862Z,31
2017-12-05T11:05:15.444Z,31
2017-12-05T11:07:21.686Z,31
2017-12-05T11:09:31.107Z,30
2017-12-05T11:11:41.880Z,28
2017-12-05T11:13:48.480Z,31
2017-12-05T11:15:54.745Z,31
2017-12-05T11:18:00.685Z,31
2017-12-05T11:20:06.660Z,28
2017-12-05T11:22:12.984Z,29
2017-12-05T11:24:20.166Z,30
2017-12-05T11:26:25.981Z,30
2017-12-05T11:30:52.522Z,30
2017-12-05T11:32:58.799Z,31
2017-12-05T11:35:05.944Z,29
2017-12-05T11:37:13.127Z,29
2017-12-05T11:39:19.460Z,30
2017-12-05T11:41:25.462Z,28
2017-12-05T11:43:30.649Z,29
2017-12-05T11:45:36.423Z,30
2017-12-05T11:47:41.503Z,29
2017-12-05T11:49:47.479Z,31
2017-12-05T11:51:52.959Z,29
2017-12-05T11:53:59.799Z,29
2017-12-05T11:56:08.144Z,30
2017-12-05T11:58:14.619Z,31
2017-12-05T12:00:21.881Z,30
2017-12-05T12:02:29.006Z,29
2017-12-05T12:04:36.244Z,31
2017-12-05T12:06:42.956Z,30
2017-12-05T12:08:52.327Z,30
2017-12-05T12:11:05.326Z,28
2017-12-05T12:13:15.996Z,29
2017-12-05T12:15:23.542Z,30
2017-12-05T12:17:29.184Z,29
2017-12-05T12:19:35.561Z,29
2017-12-05T12:21:43.538Z,28
2017-12-05T12:23:51.544Z,30
2017-12-05T12:26:00.047Z,30
2017-12-05T12:28:10.782Z,31
2017-12-05T12:30:20.507Z,30
2017-12-05T12:32:30.403Z,30
2017-12-05T12:37:11.362Z,30
2017-12-05T12:39:17.419Z,29
2017-12-05T12:41:22.877Z,29
2017-12-05T12:43:27.926Z,29
2017-12-05T12:45:33.664Z,29
2017-12-05T12:47:40.448Z,28
2017-12-05T12:49:45.845Z,28
2017-12-05T12:51:52.300Z,29
2017-12-05T12:54:04.520Z,27
2017-12-05T12:56:11.638Z,29
2017-12-05T12:58:17.780Z,28
2017-12-05T13:00:26.640Z,28
2017-12-05T13:02:43.828Z,30
2017-12-05T13:04:52.263Z,29
2017-12-05T13:06:57.662Z,28
2017-12-05T13:09:03.439Z,28
2017-12-05T13:11:09.985Z,28
2017-12-05T13:13:16.942Z,29
2017-12-05T13:15:22.536Z,30
2017-12-05T13:17:31.386Z,28
2017-12-05T13:19:39.221Z,28
2017-12-05T13:21:45.219Z,28
2017-12-05T13:23:52.423Z,30
2017-12-05T13:28:28.502Z,28
2017-12-05T13:30:35.541Z,28
2017-12-05T13:32:43.000Z,28
2017-12-05T13:34:48.539Z,30
2017-12-05T13:36:53.323Z,28
2017-12-05T13:38:58.503Z,30
2017-12-05T13:41:04.399Z,28
2017-12-05T13:43:11.402Z,28
2017-12-05T13:45:18.658Z,30
2017-12-05T13:47:25.260Z,30
2017-12-05T13:49:34.478Z,30
2017-12-05T13:51:40.967Z,28
2017-12-05T13:53:47.182Z,30
2017-12-05T13:55:52.819Z,28
2017-12-05T13:57:58.359Z,30
2017-12-05T14:00:04.124Z,28
2017-12-05T14:02:10.118Z,28
2017-12-05T14:04:16.466Z,30
2017-12-05T14:06:22.297Z,28
2017-12-05T14:08:30.047Z,27
2017-12-05T14:10:35.693Z,29
2017-12-05T14:12:41.528Z,30
2017-12-05T14:14:47.925Z,28
2017-12-05T14:16:55.651Z,28
2017-12-05T14:19:06.068Z,30
2017-12-05T14:21:13.579Z,30
2017-12-05T14:23:27.314Z,27
2017-12-05T14:25:33.599Z,28
2017-12-05T14:27:38.657Z,28
2017-12-05T14:29:44.439Z,28
2017-12-05T14:31:53.682Z,27
2017-12-05T14:34:01.403Z,30
2017-12-05T14:36:07.180Z,28
2017-12-05T14:38:13.405Z,28
2017-12-05T14:40:19.121Z,28
2017-12-05T14:42:24.258Z,26
2017-12-05T14:44:35.515Z,30
2017-12-05T14:46:44.884Z,30
2017-12-05T14:48:50.919Z,29
2017-12-05T14:50:57.757Z,30
2017-12-05T14:53:05.245Z,28
2017-12-05T14:55:11.140Z,30
2017-12-05T14:57:18.020Z,27
2017-12-05T14:59:24.503Z,28
2017-12-05T15:01:38.121Z,28
2017-12-05T15:03:45.281Z,30
2017-12-05T15:05:51.124Z,29
2017-12-05T15:07:58.423Z,29
2017-12-05T15:10:04.758Z,29
2017-12-05T15:12:12.801Z,29
2017-12-05T15:14:18.424Z,28
2017-12-05T15:16:22.961Z,27
2017-12-05T15:18:31.436Z,30
2017-12-05T15:20:38.386Z,28
2017-12-05T15:22:43.343Z,27
2017-12-05T15:24:48.856Z,28
2017-12-05T15:26:59.363Z,27
2017-12-05T15:29:13.275Z,29
2017-12-05T15:31:19.981Z,28
2017-12-05T15:33:28.226Z,30
2017-12-05T15:35:37.295Z,28
2017-12-05T15:37:44.405Z,28
2017-12-05T15:39:49.600Z,27
2017-12-05T15:41:57.789Z,27
2017-12-05T15:44:04.526Z,29
2017-12-05T15:46:10.762Z,28
2017-12-05T15:48:18.240Z,29
2017-12-05T15:50:24.521Z,28
2017-12-05T15:52:29.861Z,28
2017-12-05T15:54:37.757Z,29
2017-12-05T15:56:44.803Z,27
2017-12-05T15:58:50.508Z,28
2017-12-05T16:00:55.667Z,28
2017-12-05T16:03:00.897Z,29
2017-12-05T16:05:09.641Z,28
2017-12-05T16:07:27.676Z,28
2017-12-05T16:09:35.625Z,29
2017-12-05T16:11:45.744Z,29
2017-12-05T16:15:55.424Z,28
2017-12-05T16:18:01.657Z,28
2017-12-05T16:20:10.505Z,29
2017-12-05T16:22:26.897Z,27
2017-12-05T16:24:35.967Z,29
2017-12-05T16:26:45.260Z,27
2017-12-05T16:28:51.688Z,27
2017-12-05T16:31:02.200Z,28
2017-12-05T16:33:10.604Z,28
2017-12-05T16:37:45.686Z,29
2017-12-05T16:39:58.765Z,28
2017-12-05T16:42:12.645Z,28
2017-12-05T16:44:22.947Z,27
2017-12-05T16:46:29.441Z,27
2017-12-05T16:48:36.417Z,27
2017-12-05T16:50:45.983Z,28
2017-12-05T16:52:52.804Z,27
2017-12-05T16:56:58.945Z,27
2017-12-05T16:59:06.716Z,29
2017-12-05T17:01:17.769Z,27
2017-12-05T17:03:24.100Z,26
2017-12-05T17:05:29.900Z,27
2017-12-05T17:07:35.561Z,27
2017-12-05T17:09:42.942Z,27
2017-12-05T17:11:58.622Z,29
2017-12-05T17:14:08.599Z,28
2017-12-05T17:16:14.359Z,28
2017-12-05T17:18:27.560Z,28
2017-12-05T17:20:41.346Z,29
2017-12-05T17:22:48.286Z,27
2017-12-05T17:24:54.681Z,28
2017-12-05T17:27:01.943Z,27
2017-12-05T17:29:08.223Z,28
2017-12-05T17:31:14.258Z,28
2017-12-05T17:33:21.158Z,27
2017-12-05T17:35:30.961Z,28
2017-12-05T17:37:49.644Z,27
2017-12-05T17:40:01.602Z,27
2017-12-05T17:44:20.968Z,27
2017-12-05T17:46:28.903Z,26
2017-12-05T17:48:35.208Z,26
2017-12-05T17:50:41.123Z,27
2017-12-05T17:52:47.402Z,26
2017-12-05T17:54:58.283Z,27
2017-12-05T17:57:09.407Z,26
2017-12-05T17:59:16.098Z,27
2017-12-05T18:01:23.621Z,28
2017-12-05T18:03:32.001Z,28
2017-12-05T18:05:42.206Z,28
2017-12-05T18:07:48.895Z,26
2017-12-05T18:09:55.323Z,26
2017-12-05T18:11:59.937Z,28
2017-12-05T18:14:07.237Z,26
2017-12-05T18:16:13.862Z,26
2017-12-05T18:18:19.128Z,26
2017-12-05T18:20:24.662Z,26
2017-12-05T18:22:30.327Z,28
2017-12-05T18:27:10.259Z,28
2017-12-05T18:29:15.484Z,26
2017-12-05T18:31:20.280Z,25
2017-12-05T18:33:25.583Z,26
2017-12-05T18:35:31.306Z,26
2017-12-05T18:37:37.177Z,26
2017-12-05T18:39:43.717Z,28
2017-12-05T18:41:49.011Z,28
2017-12-05T18:43:56.182Z,28
2017-12-05T18:46:01.058Z,25
2017-12-05T18:48:05.807Z,25
2017-12-05T18:50:18.575Z,28
2017-12-05T18:52:34.380Z,28
2017-12-05T18:54:39.437Z,26
2017-12-05T18:56:45.716Z,28
2017-12-05T18:58:50.449Z,28
2017-12-05T19:00:56.029Z,26
2017-12-05T19:03:00.784Z,26
2017-12-05T19:05:07.668Z,26
2017-12-05T19:07:13.179Z,26
2017-12-05T19:09:19.350Z,26
2017-12-05T19:11:25.323Z,26
2017-12-05T19:13:39.439Z,26
2017-12-05T19:15:55.057Z,25
2017-12-05T19:18:00.646Z,28
2017-12-05T19:20:06.367Z,28
2017-12-05T19:22:12.226Z,26
2017-12-05T19:24:17.918Z,26
2017-12-05T19:26:24.361Z,28
2017-12-05T19:28:31.560Z,28
2017-12-05T19:30:37.662Z,26
2017-12-05T19:32:43.601Z,28
2017-12-05T19:34:50.104Z,26
2017-12-05T19:36:55.781Z,25
2017-12-05T19:39:00.461Z,26
2017-12-05T19:41:05.419Z,25
2017-12-05T19:43:11.622Z,25
2017-12-05T19:45:17.990Z,26
2017-12-05T19:47:28.167Z,27
2017-12-05T19:49:34.042Z,26
2017-12-05T19:51:40.025Z,28
2017-12-05T19:53:45.022Z,26
2017-12-05T19:55:51.682Z,26
2017-12-05T19:57:57.584Z,28
2017-12-05T20:00:04.077Z,26
2017-12-05T20:02:19.677Z,26
2017-12-05T20:04:29.021Z,28
2017-12-05T20:06:37.524Z,26
2017-12-05T20:08:42.199Z,26
2017-12-05T20:10:47.164Z,26
2017-12-05T20:12:51.922Z,26
2017-12-05T20:14:57.327Z,26
2017-12-05T20:17:02.659Z,26
2017-12-05T20:19:07.623Z,26
2017-12-05T20:21:20.021Z,26
2017-12-05T20:23:25.725Z,27
2017-12-05T20:25:31.404Z,26
2017-12-05T20:27:36.985Z,26
2017-12-05T20:29:42.682Z,26
2017-12-05T20:31:48.564Z,24
2017-12-05T20:33:53.919Z,27
2017-12-05T20:36:01.668Z,28
2017-12-05T20:38:07.503Z,27
2017-12-05T20:40:17.077Z,26
2017-12-05T20:42:36.436Z,26
2017-12-05T20:44:41.382Z,26
2017-12-05T20:46:48.021Z,27
2017-12-05T20:48:53.545Z,26
2017-12-05T20:50:59.364Z,25
2017-12-05T20:53:05.023Z,26
2017-12-05T20:55:11.244Z,26
2017-12-05T20:57:16.463Z,24
2017-12-05T20:59:21.279Z,26
2017-12-05T21:01:26.241Z,26
2017-12-05T21:03:32.304Z,25
2017-12-05T21:05:37.039Z,25
2017-12-05T21:07:41.869Z,25
2017-12-05T21:09:46.584Z,26
2017-12-05T21:11:52.465Z,27
2017-12-05T21:14:09.021Z,27
2017-12-05T21:16:14.198Z,26
2017-12-05T21:18:20.420Z,25
2017-12-05T21:20:25.341Z,24
2017-12-05T21:22:30.518Z,27
2017-12-05T21:24:35.187Z,24
2017-12-05T21:26:40.785Z,26
2017-12-05T21:28:45.481Z,25
2017-12-05T21:30:49.982Z,25
2017-12-05T21:32:54.962Z,25
2017-12-05T21:34:59.688Z,25
2017-12-05T21:37:05.017Z,27
2017-12-05T21:39:09.946Z,24
2017-12-05T21:41:14.951Z,26
2017-12-05T21:43:19.601Z,24
2017-12-05T21:45:24.886Z,25
2017-12-05T21:47:29.720Z,26
2017-12-05T21:49:34.451Z,25
2017-12-05T21:51:39.935Z,27
2017-12-05T21:53:44.620Z,25
2017-12-05T21:55:50.781Z,24
2017-12-05T21:57:55.598Z,24
2017-12-05T22:02:00.211Z,25
2017-12-05T22:04:07.845Z,26
2017-12-05T22:06:13.778Z,25
2017-12-05T22:08:19.522Z,25
2017-12-05T22:10:24.399Z,26
2017-12-05T22:12:30.126Z,26
2017-12-05T22:14:35.260Z,25
2017-12-05T22:16:39.836Z,25
2017-12-05T22:18:44.401Z,26
2017-12-05T22:20:49.367Z,24
2017-12-05T22:22:53.958Z,24
2017-12-05T22:24:58.462Z,25
2017-12-05T22:27:03.740Z,25
2017-12-05T22:29:08.602Z,25
2017-12-05T22:31:13.604Z,25
2017-12-05T22:33:18.182Z,24
2017-12-05T22:35:22.846Z,24
2017-12-05T22:37:27.424Z,24
2017-12-05T22:39:31.989Z,24
2017-12-05T22:41:37.238Z,26
2017-12-05T22:43:42.460Z,25
2017-12-05T22:45:47.245Z,26
2017-12-05T22:47:51.820Z,24
2017-12-05T22:49:59.712Z,24
2017-12-05T22:52:07.247Z,25
2017-12-05T22:54:14.140Z,24
2017-12-05T22:56:18.926Z,24
2017-12-05T22:58:23.606Z,25
2017-12-05T23:00:28.620Z,24
2017-12-05T23:02:33.447Z,26
2017-12-05T23:04:38.266Z,24
2017-12-05T23:06:42.947Z,24
2017-12-05T23:08:47.425Z,24
2017-12-05T23:10:52.089Z,24
2017-12-05T23:12:56.824Z,24
2017-12-05T23:15:01.737Z,24
2017-12-05T23:17:08.282Z,26
2017-12-05T23:19:13.963Z,24
2017-12-05T23:21:18.536Z,24
2017-12-05T23:23:23.604Z,24
2017-12-05T23:25:31.718Z,26
2017-12-05T23:27:38.298Z,24
2017-12-05T23:29:43.518Z,23
2017-12-05T23:31:48.361Z,24
2017-12-05T23:33:55.578Z,24
2017-12-05T23:36:00.341Z,24
2017-12-05T23:38:06.861Z,26
2017-12-05T23:40:14.534Z,26
2017-12-05T23:42:20.289Z,24
2017-12-05T23:44:26.075Z,26
2017-12-05T23:46:36.136Z,26
2017-12-05T23:48:41.919Z,26
2017-12-05T23:50:46.405Z,24
2017-12-05T23:52:50.944Z,24
2017-12-05T23:54:55.541Z,24
2017-12-05T23:57:00.650Z,25
2017-12-05T23:59:05.382Z,24
